Time;durP1;ratioP1;P1;durP2;ratioP2;P2;SDS_P1;SDS_P2;PMS_P1;PMS_P2;Temp;Humidity;BMP_temperature;BMP_pressure;BME280_temperature;BME280_humidity;BME280_pressure;Samples;Min_cycle;Max_cycle;Signal;HPM_P1;HPM_P2
2023/01/27 00:00:05;;;;;;;40.28;11.60;;;;;;;-144.47;96.89;53185.81;4995173;28;20030;-68
2023/01/27 00:02:31;;;;;;;50.88;13.00;;;;;;;-144.47;96.91;53197.72;5010072;22;21220;-69
2023/01/27 00:04:56;;;;;;;28.92;9.52;;;;;;;-144.47;97.36;53158.00;5008640;28;20037;-70
2023/01/27 00:07:21;;;;;;;36.55;9.93;;;;;;;-144.47;96.98;53187.78;5006326;28;20021;-67
2023/01/27 00:09:47;;;;;;;49.13;13.82;;;;;;;-144.47;97.38;53201.69;5017507;28;20435;-69
2023/01/27 00:15:07;;;;;;;32.22;12.02;;;;;;;-144.47;98.20;53195.75;4982769;28;20145;-68
2023/01/27 00:17:33;;;;;;;24.00;8.05;;;;;;;-144.47;98.50;53187.78;4998313;28;20030;-69
2023/01/27 00:19:59;;;;;;;38.92;14.43;;;;;;;-144.47;98.20;53195.75;4988832;28;20029;-68
2023/01/27 00:25:09;;;;;;;51.08;13.38;;;;;;;-144.47;98.14;53148.06;4990385;28;20110;-67
2023/01/27 00:27:34;;;;;;;37.80;9.50;;;;;;;-144.47;98.10;53199.72;4989052;28;20018;-66
2023/01/27 00:29:59;;;;;;;34.78;8.27;;;;;;;-144.47;98.53;53181.84;4980473;28;20110;-71
2023/01/27 00:35:09;;;;;;;19.48;6.85;;;;;;;-144.47;99.33;53193.75;4985106;28;20048;-69
2023/01/27 00:37:35;;;;;;;32.88;9.50;;;;;;;-144.47;99.39;53193.75;4984977;28;20085;-69
2023/01/27 00:40:00;;;;;;;33.63;9.43;;;;;;;-144.47;99.48;53189.78;4982628;28;20027;-67
2023/01/27 00:42:26;;;;;;;21.90;7.43;;;;;;;-144.47;99.75;53183.81;4989305;28;20396;-66
2023/01/27 00:47:35;;;;;;;22.85;7.57;;;;;;;-144.47;100.00;53213.63;4977597;28;20041;-69
2023/01/27 00:50:00;;;;;;;27.33;8.35;;;;;;;-144.47;100.00;53183.81;4989573;28;20026;-69
2023/01/27 00:52:26;;;;;;;24.30;8.32;;;;;;;-144.47;100.00;53189.78;4989144;28;20026;-68
2023/01/27 00:54:51;;;;;;;26.65;7.38;;;;;;;-144.47;100.00;53217.59;4989429;28;20489;-69
2023/01/27 00:57:17;;;;;;;24.08;8.35;;;;;;;-144.47;100.00;53203.69;4990068;28;20026;-70
2023/01/27 00:59:42;;;;;;;17.48;6.15;;;;;;;-144.47;100.00;53203.69;4988166;28;20026;-68
2023/01/27 01:02:07;;;;;;;19.63;7.03;;;;;;;-144.47;99.90;53177.88;4989156;28;20042;-67
2023/01/27 01:04:33;;;;;;;17.40;6.78;;;;;;;-144.47;99.89;53191.78;4989194;28;20459;-70
2023/01/27 01:06:58;;;;;;;22.83;6.90;;;;;;;-144.47;100.00;53193.75;4988908;28;20038;-70
2023/01/27 01:09:23;;;;;;;22.10;6.82;;;;;;;-144.47;100.00;53193.75;4992519;28;20121;-69
2023/01/27 01:11:49;;;;;;;20.92;8.05;;;;;;;-144.47;100.00;53187.78;4989868;28;20023;-70
2023/01/27 01:14:14;;;;;;;19.88;6.80;;;;;;;-144.47;99.93;53193.75;4988216;28;20022;-69
2023/01/27 01:16:39;;;;;;;19.40;5.85;;;;;;;-144.47;99.92;53215.59;4997056;28;20030;-71
2023/01/27 01:19:05;;;;;;;19.88;6.75;;;;;;;-144.47;99.85;53156.00;4993347;28;20033;-71
2023/01/27 01:21:30;;;;;;;17.88;6.05;;;;;;;-144.47;99.77;53187.78;4990105;28;20477;-70
2023/01/27 01:23:56;;;;;;;18.15;6.20;;;;;;;-144.47;99.74;53191.78;4989820;28;20032;-70
2023/01/27 01:26:21;;;;;;;16.67;6.22;;;;;;;-144.47;99.75;53197.72;4988470;28;20161;-71
2023/01/27 01:28:46;;;;;;;19.58;5.85;;;;;;;-144.47;99.88;53209.66;4989416;28;20030;-68
2023/01/27 01:31:15;;;;;;;17.80;6.18;;;;;;;-144.47;99.92;53177.88;4984978;28;20029;-71
2023/01/27 01:33:41;;;;;;;18.33;6.68;;;;;;;-144.47;100.00;53241.44;4996261;28;20097;-68
2023/01/27 01:36:09;;;;;;;13.18;5.80;;;;;;;-144.47;100.00;53193.75;4989717;28;20030;-67
2023/01/27 01:38:34;;;;;;;16.73;5.93;;;;;;;-144.47;100.00;53205.66;4989367;28;20032;-71
2023/01/27 01:41:00;;;;;;;15.60;6.65;;;;;;;-144.47;100.00;53189.78;4990025;28;20257;-71
2023/01/27 01:43:26;;;;;;;13.93;5.57;;;;;;;-144.47;99.59;53225.53;4989821;28;20030;-71
2023/01/27 01:45:57;;;;;;;16.60;4.93;;;;;;;-144.47;99.45;53185.81;4990229;28;20127;-72
2023/01/27 01:48:22;;;;;;;11.63;5.03;;;;;;;-144.47;99.19;53179.84;4989250;28;20030;-71
2023/01/27 01:51:12;;;;;;;14.93;5.38;;;;;;;-144.47;98.29;53181.84;4990000;28;20031;-72
2023/01/27 01:53:46;;;;;;;17.75;5.07;;;;;;;-144.47;98.42;53191.78;4989642;28;20118;-70
2023/01/27 01:56:22;;;;;;;15.65;4.50;;;;;;;-144.47;98.51;53201.69;4989622;28;20041;-68
2023/01/27 01:58:47;;;;;;;14.75;4.43;;;;;;;-144.47;98.25;53195.75;4986634;28;20026;-67
2023/01/27 02:01:16;;;;;;;15.52;5.35;;;;;;;-144.47;98.30;53217.59;4988426;28;20053;-67
2023/01/27 02:03:45;;;;;;;14.77;4.70;;;;;;;-144.47;98.07;53189.78;4987854;28;20038;-69
2023/01/27 02:06:10;;;;;;;15.40;4.88;;;;;;;-144.47;97.75;53219.56;4989419;28;20030;-70
2023/01/27 02:08:42;;;;;;;12.82;5.00;;;;;;;-144.47;97.20;53189.78;4993779;28;20037;-70
2023/01/27 02:11:09;;;;;;;11.25;4.63;;;;;;;-144.47;97.00;53195.75;4989994;28;20022;-67
2023/01/27 02:13:34;;;;;;;10.07;4.32;;;;;;;-144.47;96.69;53209.66;4992412;28;20419;-67
2023/01/27 02:15:59;;;;;;;8.45;4.00;;;;;;;-144.47;96.66;53193.75;4999832;28;20602;-70
2023/01/27 02:18:26;;;;;;;12.95;4.65;;;;;;;-144.47;96.59;53193.75;4996074;28;20060;-69
2023/01/27 02:20:53;;;;;;;16.80;5.45;;;;;;;-144.47;96.80;53221.56;4993101;28;20033;-71
2023/01/27 02:23:47;;;;;;;10.90;4.22;;;;;;;-144.47;96.79;53201.69;4993066;28;20026;-69
2023/01/27 02:26:33;;;;;;;12.68;4.72;;;;;;;-144.47;97.24;53161.97;4993222;28;20038;-68
2023/01/27 02:29:14;;;;;;;12.77;5.10;;;;;;;-144.47;97.65;53183.81;4992975;28;20026;-70
2023/01/27 02:31:39;;;;;;;10.98;4.97;;;;;;;-144.47;97.73;53191.78;4988433;28;20050;-71
2023/01/27 02:34:08;;;;;;;16.90;4.32;;;;;;;-144.47;97.98;53189.78;4999063;28;20087;-71
2023/01/27 02:36:39;;;;;;;9.47;4.40;;;;;;;-144.47;97.15;53197.72;4992555;28;20080;-68
2023/01/27 02:39:08;;;;;;;13.52;4.05;;;;;;;-144.47;97.44;53193.75;4992671;28;20356;-69
2023/01/27 02:41:41;;;;;;;11.98;4.07;;;;;;;-144.47;97.67;53209.66;4991338;28;20026;-66
2023/01/27 02:44:08;;;;;;;12.15;4.47;;;;;;;-144.47;97.44;53215.59;4992290;28;20050;-70
2023/01/27 02:46:33;;;;;;;17.52;5.20;;;;;;;-144.47;97.51;53215.59;4992247;28;20026;-69
2023/01/27 02:48:58;;;;;;;10.02;4.43;;;;;;;-144.47;97.61;53195.75;4992068;28;20038;-67
2023/01/27 02:51:24;;;;;;;16.15;4.88;;;;;;;-144.47;98.06;53231.50;4992318;28;20039;-65
2023/01/27 02:53:49;;;;;;;12.40;5.00;;;;;;;-144.47;98.01;53177.88;4992630;28;20026;-68
2023/01/27 02:56:15;;;;;;;16.27;4.93;;;;;;;-144.47;98.17;53197.72;4990938;28;20472;-69
2023/01/27 02:58:40;;;;;;;16.38;5.13;;;;;;;-144.47;97.96;53199.72;4992533;28;20030;-69
2023/01/27 03:01:06;;;;;;;10.80;4.13;;;;;;;-144.47;97.18;53201.69;4992262;28;20610;-68
2023/01/27 03:03:31;;;;;;;9.27;3.75;;;;;;;-144.47;97.03;53193.75;4991279;28;20026;-68
2023/01/27 03:05:56;;;;;;;12.73;5.53;;;;;;;-144.47;97.35;53171.91;4992134;28;20038;-70
2023/01/27 03:08:22;;;;;;;12.07;4.57;;;;;;;-144.47;97.49;53217.59;4995894;28;20144;-69
2023/01/27 03:10:52;;;;;;;12.25;4.68;;;;;;;-144.47;97.21;53221.56;4991959;28;20101;-70
2023/01/27 03:13:24;;;;;;;11.18;5.15;;;;;;;-144.47;96.41;53171.91;4991034;28;20548;-68
2023/01/27 03:18:35;;;;;;;11.98;4.50;;;;;;;-144.47;96.34;53187.78;4996561;28;20103;-70
2023/01/27 03:21:03;;;;;;;11.30;4.47;;;;;;;-144.47;96.27;53199.72;4991577;28;20058;-69
2023/01/27 03:23:28;;;;;;;16.25;5.63;;;;;;;-144.47;96.31;53185.81;4987533;28;20138;-69
2023/01/27 03:25:54;;;;;;;10.80;4.53;;;;;;;-144.47;96.09;53189.78;4991693;28;20465;-68
2023/01/27 03:28:19;;;;;;;13.52;5.57;;;;;;;-144.47;96.14;53209.66;4991490;28;20029;-69
2023/01/27 03:30:44;;;;;;;19.90;6.20;;;;;;;-144.47;96.17;53217.59;4986784;28;20034;-68
2023/01/27 03:33:10;;;;;;;11.85;4.20;;;;;;;-144.47;95.86;53209.66;4991665;28;20022;-69
2023/01/27 03:35:37;;;;;;;13.82;5.15;;;;;;;-144.47;96.01;53191.78;4991559;28;20396;-69
2023/01/27 03:46:23;;;;;;;15.18;6.35;;;;;;;-144.47;96.87;53193.75;4991173;28;20037;-69
2023/01/27 03:48:54;;;;;;;11.40;4.93;;;;;;;-144.47;96.95;53195.75;4990763;28;20408;-67
2023/01/27 03:51:23;;;;;;;13.38;5.53;;;;;;;-144.47;97.11;53191.78;4990936;28;20026;-66
2023/01/27 03:53:48;;;;;;;13.83;5.53;;;;;;;-144.47;97.21;53229.50;4989696;28;20030;-69
2023/01/27 03:56:15;;;;;;;14.88;5.78;;;;;;;-144.47;97.61;53199.72;4990845;28;20057;-69
2023/01/27 03:58:42;;;;;;;14.48;6.00;;;;;;;-144.47;97.43;53181.84;4991332;28;20034;-67
2023/01/27 04:01:20;;;;;;;15.43;5.57;;;;;;;-144.47;97.67;53195.75;4991326;28;20015;-67
2023/01/27 04:06:52;;;;;;;12.95;4.85;;;;;;;-144.47;97.65;53197.72;4990847;28;20060;-67
2023/01/27 04:09:22;;;;;;;17.55;5.90;;;;;;;-144.47;97.98;53213.63;4995209;28;20022;-68
2023/01/27 04:11:54;;;;;;;18.13;6.75;;;;;;;-144.47;98.35;53197.72;4977848;28;20026;-68
2023/01/27 04:14:40;;;;;;;15.85;5.72;;;;;;;-144.47;98.43;53205.66;4989731;28;20131;-66
2023/01/27 04:17:10;;;;;;;14.02;5.30;;;;;;;-144.47;98.68;53199.72;5001244;28;20038;-71
2023/01/27 04:19:35;;;;;;;21.35;5.55;;;;;;;-144.47;98.81;53189.78;4992334;28;20488;-71
2023/01/27 04:22:01;;;;;;;15.10;5.40;;;;;;;-144.47;99.02;53183.81;4990712;28;20029;-70
2023/01/27 04:24:27;;;;;;;18.35;6.53;;;;;;;-144.47;99.32;53201.69;4990703;28;20117;-69
2023/01/27 04:26:59;;;;;;;17.85;5.97;;;;;;;-144.47;99.18;53195.75;4990377;28;20042;-66
2023/01/27 04:29:27;;;;;;;12.60;5.05;;;;;;;-144.47;98.80;53211.63;4988829;28;20046;-69
2023/01/27 04:31:54;;;;;;;16.65;5.25;;;;;;;-144.47;98.82;53189.78;4987349;28;20120;-67
2023/01/27 04:34:19;;;;;;;13.95;5.13;;;;;;;-144.47;98.89;53177.88;4992200;28;20038;-68
2023/01/27 04:36:46;;;;;;;14.63;5.03;;;;;;;-144.47;98.71;53227.53;4989807;28;20057;-70
2023/01/27 04:39:12;;;;;;;13.48;6.07;;;;;;;-144.47;98.99;53161.97;4990249;28;20393;-70
2023/01/27 04:41:37;;;;;;;15.02;6.72;;;;;;;-144.47;99.52;53205.66;4990088;28;20022;-70
2023/01/27 04:44:04;;;;;;;16.38;6.95;;;;;;;-144.47;99.71;53217.59;4990473;28;20026;-68
2023/01/27 04:46:29;;;;;;;14.85;5.88;;;;;;;-144.47;100.00;53223.56;4989884;28;20046;-70
2023/01/27 04:48:55;;;;;;;16.60;5.40;;;;;;;-144.47;100.00;53217.59;4989752;28;20042;-69
2023/01/27 04:51:20;;;;;;;15.35;6.68;;;;;;;-144.47;100.00;53217.59;4989771;28;20031;-69
2023/01/27 04:53:46;;;;;;;19.33;7.15;;;;;;;-144.47;100.00;53189.78;4989108;28;20399;-70
2023/01/27 04:56:35;;;;;;;18.05;7.07;;;;;;;-144.47;100.00;53219.56;4990217;28;20101;-70
2023/01/27 04:59:03;;;;;;;19.20;6.57;;;;;;;-144.47;100.00;53201.69;4984366;28;20045;-69
2023/01/27 05:01:28;;;;;;;19.55;6.60;;;;;;;-144.47;100.00;53223.56;4989853;28;20468;-69
2023/01/27 05:03:54;;;;;;;24.30;7.22;;;;;;;-144.47;100.00;53173.88;4989506;28;20113;-70
2023/01/27 05:06:20;;;;;;;21.17;7.38;;;;;;;-144.47;100.00;53207.66;4989816;28;20049;-69
2023/01/27 05:08:46;;;;;;;16.58;6.43;;;;;;;-144.47;100.00;53195.75;4993108;28;20060;-68
2023/01/27 05:11:12;;;;;;;14.65;6.30;;;;;;;-144.47;100.00;53187.78;4989783;28;20431;-68
2023/01/27 05:13:39;;;;;;;21.27;7.55;;;;;;;-144.47;100.00;53199.72;4989847;28;20153;-70
2023/01/27 05:16:07;;;;;;;19.33;6.78;;;;;;;-144.47;100.00;53213.63;4990763;28;20034;-71
2023/01/27 05:18:33;;;;;;;20.50;5.85;;;;;;;-144.47;100.00;53207.66;4988743;28;20042;-66
2023/01/27 05:21:00;;;;;;;16.75;7.32;;;;;;;-144.47;100.00;53203.69;4989177;28;20056;-70
2023/01/27 05:23:34;;;;;;;15.45;5.15;;;;;;;-144.47;100.00;53215.59;4989908;28;20030;-71
2023/01/27 05:26:06;;;;;;;14.07;6.03;;;;;;;-144.47;100.00;53185.81;4982449;28;20503;-71
2023/01/27 05:28:32;;;;;;;13.15;5.65;;;;;;;-144.47;100.00;53231.50;4984897;28;20295;-72
2023/01/27 05:31:18;;;;;;;13.57;5.88;;;;;;;-144.47;100.00;53217.59;4984586;28;20717;-71
2023/01/27 05:33:45;;;;;;;14.07;5.72;;;;;;;-144.47;100.00;53195.75;4995611;28;20068;-69
2023/01/27 05:36:14;;;;;;;16.42;6.03;;;;;;;-144.47;100.00;53181.84;4984230;28;20643;-69
2023/01/27 05:38:39;;;;;;;16.52;5.65;;;;;;;-144.47;100.00;53167.94;4975804;28;20512;-69
2023/01/27 05:41:07;;;;;;;16.27;5.88;;;;;;;-144.47;100.00;53193.75;4991612;28;20030;-67
2023/01/27 05:43:34;;;;;;;13.82;6.35;;;;;;;-144.47;100.00;53221.56;4989572;28;20445;-68
2023/01/27 05:46:04;;;;;;;14.25;5.63;;;;;;;-144.47;100.00;53201.69;4990312;28;20026;-69
2023/01/27 05:48:30;;;;;;;15.32;6.15;;;;;;;-144.47;100.00;53160.00;4989943;28;20085;-69
2023/01/27 05:50:57;;;;;;;20.42;6.72;;;;;;;-144.47;100.00;53173.88;4992670;28;20038;-69
2023/01/27 05:53:23;;;;;;;13.88;5.88;;;;;;;-144.47;100.00;53193.75;4991423;28;20030;-68
2023/01/27 05:55:50;;;;;;;18.10;6.97;;;;;;;-144.47;100.00;53237.44;4994660;28;20030;-71
2023/01/27 05:58:16;;;;;;;19.50;7.10;;;;;;;-144.47;100.00;53193.75;4993571;28;20034;-69
2023/01/27 06:00:41;;;;;;;14.80;6.03;;;;;;;-144.47;100.00;53205.66;4988979;28;20026;-69
2023/01/27 06:03:07;;;;;;;15.05;5.65;;;;;;;-144.47;100.00;53221.56;5008786;22;20024;-68
2023/01/27 06:05:32;;;;;;;13.65;5.13;;;;;;;-144.47;100.00;53221.56;5011684;28;20030;-69
2023/01/27 06:07:57;;;;;;;16.50;5.93;;;;;;;-144.47;100.00;53177.88;5011265;28;20044;-66
2023/01/27 06:10:22;;;;;;;17.75;6.30;;;;;;;-144.47;100.00;53201.69;5011936;28;20034;-68
2023/01/27 06:12:48;;;;;;;10.27;4.97;;;;;;;-144.47;100.00;53181.84;5011541;28;20060;-69
2023/01/27 06:15:13;;;;;;;13.55;5.38;;;;;;;-144.47;100.00;53215.59;5011283;28;20033;-70
2023/01/27 06:17:39;;;;;;;22.30;6.47;;;;;;;-144.47;100.00;53197.72;5010804;28;20033;-66
2023/01/27 06:20:04;;;;;;;17.65;5.50;;;;;;;-144.47;100.00;53177.88;5011728;28;20472;-69
2023/01/27 06:22:30;;;;;;;15.13;5.68;;;;;;;-144.47;100.00;53173.88;5022518;28;20025;-66
2023/01/27 06:24:55;;;;;;;14.80;5.10;;;;;;;-144.47;100.00;53158.00;5015848;28;20380;-69
2023/01/27 06:27:20;;;;;;;13.93;6.45;;;;;;;-144.47;100.00;53185.81;5011956;28;20046;-70
2023/01/27 06:29:46;;;;;;;16.15;6.18;;;;;;;-144.47;100.00;53199.72;5011749;28;20030;-66
2023/01/27 06:32:11;;;;;;;14.23;6.32;;;;;;;-144.47;100.00;53193.75;5012228;28;20034;-67
2023/01/27 06:34:36;;;;;;;19.77;7.80;;;;;;;-144.47;100.00;53199.72;5005869;28;20065;-66
2023/01/27 06:37:02;;;;;;;17.95;6.47;;;;;;;-144.47;100.00;53189.78;5020478;28;20112;-66
2023/01/27 06:39:27;;;;;;;12.77;5.90;;;;;;;-144.47;100.00;53179.84;5016109;28;20394;-68
2023/01/27 06:41:52;;;;;;;23.08;6.88;;;;;;;-144.47;100.00;53191.78;5010840;28;20084;-71
2023/01/27 06:44:18;;;;;;;23.13;6.32;;;;;;;-144.47;99.61;53201.69;5016082;28;20077;-69
2023/01/27 06:46:43;;;;;;;12.65;5.93;;;;;;;-144.47;99.05;53197.72;5009451;28;20096;-67
2023/01/27 06:49:08;;;;;;;14.00;5.40;;;;;;;-144.47;98.98;53197.72;5010178;28;20235;-68
2023/01/27 06:51:34;;;;;;;11.70;5.28;;;;;;;-144.47;98.15;53185.81;5017387;28;20025;-69
2023/01/27 06:53:59;;;;;;;15.40;6.00;;;;;;;-144.47;97.87;53199.72;5017363;28;20040;-71
2023/01/27 06:56:24;;;;;;;14.45;5.75;;;;;;;-144.47;96.34;53185.81;5016758;28;20475;-67
2023/01/27 06:58:50;;;;;;;18.25;6.65;;;;;;;-144.47;96.38;53177.88;5010462;28;20026;-70
2023/01/27 07:01:16;;;;;;;17.15;7.32;;;;;;;-144.47;96.93;53195.75;5011309;28;20030;-68
2023/01/27 07:03:41;;;;;;;16.40;7.72;;;;;;;-144.47;97.08;53191.78;5010460;28;20432;-67
2023/01/27 07:06:07;;;;;;;21.40;8.38;;;;;;;-144.47;97.19;53185.81;5011191;28;20039;-66
2023/01/27 07:08:33;;;;;;;15.75;7.22;;;;;;;-144.47;97.43;53185.81;5012137;28;20476;-67
2023/01/27 07:11:02;;;;;;;29.88;13.18;;;;;;;-144.47;97.64;53173.88;5011594;28;20109;-67
2023/01/27 07:13:27;;;;;;;16.40;6.25;;;;;;;-144.47;97.76;53193.75;5011161;28;20052;-66
2023/01/27 07:15:54;;;;;;;23.90;8.98;;;;;;;-144.47;97.96;53197.72;5018299;28;20034;-69
2023/01/27 07:18:20;;;;;;;18.75;8.55;;;;;;;-144.47;97.96;53213.63;5018148;28;20026;-68
2023/01/27 07:20:45;;;;;;;12.30;5.97;;;;;;;-144.47;98.69;53187.78;5007632;28;20474;-68
2023/01/27 07:23:12;;;;;;;23.90;8.23;;;;;;;-144.47;98.66;53223.56;5012685;28;20491;-67
2023/01/27 07:25:38;;;;;;;19.98;7.57;;;;;;;-144.47;98.58;53193.75;5006649;28;20034;-66
2023/01/27 07:28:04;;;;;;;17.48;7.00;;;;;;;-144.47;99.10;53185.81;5008277;28;20068;-68
2023/01/27 07:30:30;;;;;;;18.10;8.50;;;;;;;-144.47;99.79;53177.88;5013398;28;20033;-69
2023/01/27 07:33:02;;;;;;;17.10;6.60;;;;;;;-144.47;100.00;53189.78;5012987;28;20136;-66
2023/01/27 07:35:27;;;;;;;20.58;8.73;;;;;;;-144.47;100.00;53197.72;5002888;28;20176;-68
2023/01/27 07:37:52;;;;;;;29.98;11.52;;;;;;;-144.47;100.00;53207.66;5010517;28;20068;-69
2023/01/27 07:40:18;;;;;;;15.13;6.13;;;;;;;-144.47;100.00;53193.75;5011246;28;20044;-66
2023/01/27 07:42:43;;;;;;;22.17;7.55;;;;;;;-144.47;100.00;53165.94;5011127;28;20025;-69
2023/01/27 07:45:09;;;;;;;13.77;6.13;;;;;;;-144.47;100.00;53211.63;5010833;28;20036;-69
2023/01/27 07:47:34;;;;;;;15.18;5.65;;;;;;;-144.47;100.00;53177.88;5011248;28;20022;-67
2023/01/27 07:50:00;;;;;;;17.27;8.40;;;;;;;-144.47;100.00;53209.66;5014701;28;20025;-68
2023/01/27 07:52:25;;;;;;;20.13;10.43;;;;;;;-144.47;100.00;53185.81;5012613;28;20029;-66
2023/01/27 07:54:50;;;;;;;14.30;7.20;;;;;;;-144.47;100.00;53181.84;5009078;28;20033;-66
2023/01/27 07:57:16;;;;;;;23.90;8.77;;;;;;;-144.47;100.00;53165.94;5009204;28;20022;-70
2023/01/27 07:59:41;;;;;;;24.48;7.18;;;;;;;-144.47;100.00;53163.97;5009780;28;20061;-69
2023/01/27 08:02:09;;;;;;;19.17;7.22;;;;;;;-144.47;100.00;53229.50;5010862;28;20053;-66
2023/01/27 08:04:35;;;;;;;27.02;9.10;;;;;;;-144.47;100.00;53173.88;5009987;28;20034;-65
2023/01/27 08:07:00;;;;;;;29.48;9.73;;;;;;;-144.47;100.00;53213.63;5010573;28;20084;-69
2023/01/27 08:09:26;;;;;;;48.05;14.77;;;;;;;-144.47;100.00;53169.91;5010309;28;20040;-68
2023/01/27 08:11:51;;;;;;;78.18;16.58;;;;;;;-144.47;100.00;53209.66;5011743;28;20037;-67
2023/01/27 08:14:16;;;;;;;48.20;14.50;;;;;;;-144.47;100.00;53199.72;5014523;28;20032;-66
2023/01/27 08:16:42;;;;;;;36.25;10.02;;;;;;;-144.47;100.00;53181.84;5016438;28;20029;-68
2023/01/27 08:19:07;;;;;;;27.63;9.80;;;;;;;-144.47;100.00;53161.97;5010163;28;20498;-66
2023/01/27 08:21:32;;;;;;;49.20;13.00;;;;;;;-144.47;100.00;53189.78;5008900;28;20057;-68
2023/01/27 08:24:02;;;;;;;21.63;6.35;;;;;;;-144.47;100.00;53201.69;5010427;28;20076;-69
2023/01/27 08:26:28;;;;;;;53.92;13.55;;;;;;;-144.47;100.00;53158.00;5011354;28;20488;-68
2023/01/27 08:28:53;;;;;;;58.17;15.77;;;;;;;-144.47;100.00;53193.75;5011603;28;20056;-68
2023/01/27 08:31:19;;;;;;;30.15;8.85;;;;;;;-144.47;100.00;53160.00;5010093;28;20030;-67
2023/01/27 08:33:50;;;;;;;46.25;15.38;;;;;;;-144.47;100.00;53169.91;5010609;28;20037;-67
2023/01/27 08:36:17;;;;;;;24.73;7.28;;;;;;;-144.47;100.00;53211.63;5010044;28;20030;-67
2023/01/27 08:38:43;;;;;;;24.30;7.90;;;;;;;-144.47;100.00;53185.81;5009311;28;20026;-69
2023/01/27 08:41:15;;;;;;;36.95;11.10;;;;;;;-144.47;100.00;53160.00;5010591;28;20778;-67
2023/01/27 08:43:41;;;;;;;48.63;13.05;;;;;;;-144.47;100.00;53160.00;5009814;28;20026;-68
2023/01/27 08:46:07;;;;;;;41.08;10.20;;;;;;;-144.47;100.00;53171.91;5011026;28;20025;-66
2023/01/27 08:48:33;;;;;;;25.83;7.13;;;;;;;-144.47;100.00;53167.94;5010762;28;20373;-68
2023/01/27 08:51:00;;;;;;;29.83;7.93;;;;;;;-144.47;100.00;53173.88;5011164;28;20076;-66
2023/01/27 08:53:26;;;;;;;79.95;12.05;;;;;;;-144.47;100.00;53191.78;5011288;28;20022;-65
2023/01/27 08:55:55;;;;;;;71.25;14.40;;;;;;;-144.47;100.00;53167.94;5011195;28;20029;-68
2023/01/27 08:58:21;;;;;;;15.60;4.95;;;;;;;-144.47;100.00;53171.91;5010666;28;20028;-68
2023/01/27 09:00:46;;;;;;;48.05;9.85;;;;;;;-144.47;100.00;53169.91;5010870;28;20025;-67
2023/01/27 09:03:12;;;;;;;93.40;15.32;;;;;;;-144.47;100.00;53179.84;5011394;28;20028;-68
2023/01/27 09:05:39;;;;;;;21.98;7.28;;;;;;;-144.47;100.00;53165.94;5011412;28;20029;-64
2023/01/27 09:08:05;;;;;;;38.88;8.95;;;;;;;-144.47;100.00;53167.94;5016881;28;20060;-69
2023/01/27 09:10:30;;;;;;;20.35;7.47;;;;;;;-144.47;100.00;53146.09;5013348;28;20617;-66
2023/01/27 09:12:56;;;;;;;26.10;9.25;;;;;;;-144.47;100.00;53193.75;5010126;28;20034;-67
2023/01/27 09:15:21;;;;;;;25.58;9.70;;;;;;;-144.47;100.00;53150.06;5017658;28;20037;-68
2023/01/27 09:17:47;;;;;;;13.23;5.53;;;;;;;-144.47;100.00;53160.00;5017506;28;20050;-69
2023/01/27 09:20:13;;;;;;;16.95;5.75;;;;;;;-144.47;100.00;53154.03;5010168;28;20049;-68
2023/01/27 09:22:39;;;;;;;20.58;8.15;;;;;;;-144.47;100.00;53154.03;5014026;28;20105;-67
2023/01/27 09:25:07;;;;;;;25.10;6.70;;;;;;;-144.47;100.00;53134.16;5013457;28;20124;-68
2023/01/27 09:27:32;;;;;;;15.63;6.75;;;;;;;-144.47;100.00;53146.09;5014343;28;20075;-69
2023/01/27 09:29:58;;;;;;;21.63;8.90;;;;;;;-144.47;100.00;53163.97;5008938;28;20030;-66
2023/01/27 09:32:23;;;;;;;15.57;6.65;;;;;;;-144.47;100.00;53165.94;5014020;28;20022;-65
2023/01/27 09:34:48;;;;;;;18.33;8.55;;;;;;;-144.47;100.00;53161.97;5017710;28;20025;-68
2023/01/27 09:37:14;;;;;;;19.45;7.97;;;;;;;-144.47;100.00;53187.78;5017801;28;20391;-70
2023/01/27 09:39:53;;;;;;;17.52;6.53;;;;;;;-144.47;100.00;53138.13;5006357;28;20030;-68
2023/01/27 09:42:49;;;;;;;17.63;8.13;;;;;;;-144.47;100.00;53189.78;5007453;28;20522;-68
2023/01/27 09:45:52;;;;;;;14.45;5.95;;;;;;;-144.47;100.00;53165.94;5005705;28;20137;-68
2023/01/27 09:48:36;;;;;;;19.15;8.38;;;;;;;-144.47;100.00;53173.88;5002783;28;20088;-68
2023/01/27 09:51:24;;;;;;;26.15;7.93;;;;;;;-144.47;100.00;53161.97;5005918;28;20117;-64
2023/01/27 09:54:32;;;;;;;19.77;9.03;;;;;;;-144.47;100.00;53163.97;5003457;28;20025;-67
2023/01/27 09:57:05;;;;;;;20.10;8.48;;;;;;;-144.47;100.00;53161.97;4981708;28;20397;-61
2023/01/27 09:59:36;;;;;;;14.75;6.88;;;;;;;-144.47;100.00;53154.03;5004951;28;20064;-66
2023/01/27 10:02:32;;;;;;;14.73;5.85;;;;;;;-144.47;100.00;53158.00;5007449;28;20057;-65
2023/01/27 10:05:24;;;;;;;24.00;10.15;;;;;;;-144.47;100.00;53183.81;5003649;28;20040;-66
2023/01/27 10:08:34;;;;;;;17.17;7.03;;;;;;;-144.47;100.00;53160.00;5004267;28;20040;-70
2023/01/27 10:11:22;;;;;;;14.27;5.80;;;;;;;-144.47;100.00;53177.88;5006988;28;20034;-69
2023/01/27 10:14:12;;;;;;;13.77;6.18;;;;;;;-144.47;100.00;53150.06;5004285;28;20381;-65
2023/01/27 10:17:01;;;;;;;16.15;6.45;;;;;;;-144.47;100.00;53169.91;5013742;28;20040;-68
2023/01/27 10:19:50;;;;;;;16.77;7.43;;;;;;;-144.47;100.00;53199.72;5015259;28;20029;-66
2023/01/27 10:22:40;;;;;;;14.10;6.18;;;;;;;-144.47;100.00;53154.03;5011326;28;20678;-64
2023/01/27 10:25:29;;;;;;;12.07;6.05;;;;;;;-144.47;100.00;53158.00;5012718;28;20034;-68
2023/01/27 10:28:01;;;;;;;;;;;;;;;-144.47;100.00;53150.06;5011732;28;20038;-66
2023/01/27 10:30:37;;;;;;;16.33;6.72;;;;;;;-144.47;100.00;53152.03;5010651;28;19914;-67
2023/01/27 10:33:12;;;;;;;12.73;5.50;;;;;;;-144.47;100.00;53154.03;5011177;28;20022;-69
2023/01/27 10:35:47;;;;;;;12.05;5.80;;;;;;;-144.47;100.00;53130.19;5013081;28;20030;-68
2023/01/27 10:38:45;;;;;;;15.23;6.82;;;;;;;-144.47;100.00;53171.91;5012393;28;20487;-67
2023/01/27 10:41:20;;;;;;;16.55;5.72;;;;;;;-144.47;100.00;53181.84;5011110;28;20088;-65
2023/01/27 10:43:54;;;;;;;14.07;6.25;;;;;;;-144.47;100.00;53140.13;5012726;28;20036;-68
2023/01/27 10:46:34;;;;;;;15.57;6.18;;;;;;;-144.47;100.00;53177.88;5011723;28;20037;-68
2023/01/27 10:49:21;;;;;;;13.65;6.85;;;;;;;-144.47;100.00;53158.00;5012502;28;20028;-68
2023/01/27 10:51:53;;;;;;;21.05;7.57;;;;;;;-144.47;100.00;53161.97;5002672;28;20057;-68
2023/01/27 10:54:25;;;;;;;19.35;9.15;;;;;;;-144.47;100.00;53158.00;5012185;28;20041;-64
2023/01/27 10:56:58;;;;;;;15.93;6.60;;;;;;;-144.47;100.00;53173.88;5011981;28;20036;-67
2023/01/27 10:59:41;;;;;;;18.58;8.18;;;;;;;-144.47;100.00;53173.88;5012810;28;20034;-65
2023/01/27 11:02:23;;;;;;;31.30;12.35;;;;;;;-144.47;100.00;53126.22;5007029;28;20515;-70
2023/01/27 11:04:55;;;;;;;22.77;11.48;;;;;;;-144.47;100.00;53148.06;5012161;28;20423;-68
2023/01/27 11:07:22;;;;;;;22.00;10.25;;;;;;;-144.47;100.00;53132.19;5011293;28;20088;-67
2023/01/27 11:10:01;;;;;;;30.25;10.48;;;;;;;-144.47;100.00;53138.13;5019761;28;20476;-65
2023/01/27 11:12:53;;;;;;;18.50;8.38;;;;;;;-144.47;100.00;53112.31;5009726;28;20033;-70
2023/01/27 11:15:30;;;;;;;20.10;9.23;;;;;;;-144.47;100.00;53177.88;5010858;28;20037;-67
2023/01/27 11:18:19;;;;;;;19.65;9.20;;;;;;;-144.47;100.00;53156.00;5021531;28;20080;-67
2023/01/27 11:20:48;;;;;;;20.88;9.55;;;;;;;-144.47;100.00;53132.19;5011915;28;20037;-68
2023/01/27 11:23:17;;;;;;;26.45;10.63;;;;;;;-144.47;100.00;53167.94;5011359;28;20041;-67
2023/01/27 11:26:00;;;;;;;18.58;8.60;;;;;;;-144.47;100.00;53173.88;5011759;28;20041;-69
2023/01/27 11:28:41;;;;;;;23.35;9.32;;;;;;;-144.47;100.00;53136.16;5012428;28;20377;-69
2023/01/27 11:31:33;;;;;;;19.13;8.98;;;;;;;-144.47;100.00;53160.00;5009695;28;20404;-67
2023/01/27 11:34:20;;;;;;;21.10;7.03;;;;;;;-144.47;100.00;53146.09;5021902;28;20104;-67
2023/01/27 11:36:46;;;;;;;16.40;8.18;;;;;;;-144.47;100.00;53158.00;5001400;28;20118;-68
2023/01/27 11:39:14;;;;;;;16.13;7.30;;;;;;;-144.47;100.00;53138.13;5011662;28;20028;-67